New Leipzig, North Dakota
Current Conditions -  °F | °C
As of 6:35 AM on Sunday 23 Nov 2014 (Local Time) from KD57 Reporting Station
Overcast Overcast  
Wind Chill: 20°   Ceiling: 3400
Heat Index: 34°   Visibility: 10mi
Dew Point: 23°   Wind: 29mph
Humidity: 65%   Direction: 290°WNW
Pressure: 29.5"   Gusts: 45mph
Location:  46.38°N, 101.94°W
Report Text: KD57 231335Z AUTO 29025G39KT 10SM BKN034 OVC047 01/M05 A2950 RMK AO2 TSNO
Loading
Personal Weather Stations






























Interactive Weather Map New forecast layout! Learn more

10-Day Weather Forecast

Advertisements
Track Severe Weather on mobile